FIN2CM LIMC-EFHK
Flight info
| Callsign | FIN2CM |
|---|---|
| Flight time | 2h 36m |
| Altitude | 40000 |
| Route | OSKOR DCT NESTI DCT MALUG/N0480F410 DCT PINQI DCT ODLIV DCT RASAN DCT PENOR DCT ALAMI DCT OKEVU DCT EVADI Y370 DIVAM |
| Aircraft | A359/H-SDE2E3GHIJ3J4J5LM1ORWXY/LB1D1 |
Departure
| Time | 2026-04-26 12:02 |
|---|---|
| Airport | Milan Malpensa International Airport (LIMC) |
Arrival
| Time | 2026-04-26 14:39 |
|---|---|
| Airport | Helsinki Vantaa Airport (EFHK) |
| Time | Latitude | Longitude | Altitude | Speed | Heading |
|---|---|---|---|---|---|
| 2026-04-26 11:13 | 45.62694 | 8.71634 | 755 ft | 0 kts | 349° |
| 2026-04-26 11:48 | 45.62679 | 8.71638 | 753 ft | 3 kts | 349° |
| 2026-04-26 11:48 | 45.62657 | 8.71643 | 755 ft | 3 kts | 355° |
| 2026-04-26 11:49 | 45.62635 | 8.71643 | 753 ft | 3 kts | 17° |
| 2026-04-26 11:49 | 45.62620 | 8.71630 | 753 ft | 2 kts | 60° |
| 2026-04-26 11:49 | 45.62625 | 8.71647 | 755 ft | 3 kts | 70° |
| 2026-04-26 11:49 | 45.62630 | 8.71679 | 755 ft | 3 kts | 80° |
| 2026-04-26 11:50 | 45.62631 | 8.71692 | 756 ft | 0 kts | 79° |
| 2026-04-26 11:52 | 45.62639 | 8.71751 | 759 ft | 13 kts | 79° |
| 2026-04-26 11:53 | 45.62658 | 8.71888 | 754 ft | 15 kts | 79° |
| 2026-04-26 11:53 | 45.62677 | 8.72037 | 756 ft | 14 kts | 79° |
| 2026-04-26 11:53 | 45.62659 | 8.72135 | 752 ft | 10 kts | 150° |
| 2026-04-26 11:54 | 45.62509 | 8.72180 | 753 ft | 7 kts | 169° |
| 2026-04-26 11:54 | 45.62416 | 8.72206 | 755 ft | 18 kts | 169° |
| 2026-04-26 11:54 | 45.62290 | 8.72241 | 755 ft | 16 kts | 169° |
| 2026-04-26 11:54 | 45.62221 | 8.72268 | 753 ft | 3 kts | 135° |
| 2026-04-26 11:55 | 45.62223 | 8.72326 | 754 ft | 10 kts | 79° |
| 2026-04-26 11:55 | 45.62240 | 8.72459 | 747 ft | 17 kts | 79° |
| 2026-04-26 11:55 | 45.62264 | 8.72631 | 754 ft | 17 kts | 78° |
| 2026-04-26 11:55 | 45.62287 | 8.72798 | 755 ft | 18 kts | 78° |
| 2026-04-26 11:56 | 45.62310 | 8.72958 | 757 ft | 10 kts | 79° |
| 2026-04-26 11:56 | 45.62277 | 8.73027 | 756 ft | 9 kts | 162° |
| 2026-04-26 11:56 | 45.62203 | 8.73047 | 757 ft | 12 kts | 169° |
| 2026-04-26 11:56 | 45.62109 | 8.73072 | 757 ft | 15 kts | 169° |
| 2026-04-26 11:57 | 45.62006 | 8.73100 | 756 ft | 16 kts | 169° |
| 2026-04-26 11:57 | 45.61909 | 8.73126 | 756 ft | 13 kts | 169° |
| 2026-04-26 11:57 | 45.61826 | 8.73149 | 758 ft | 8 kts | 169° |
| 2026-04-26 11:57 | 45.61771 | 8.73165 | 756 ft | 8 kts | 166° |
| 2026-04-26 11:58 | 45.61735 | 8.73207 | 755 ft | 6 kts | 122° |
| 2026-04-26 11:58 | 45.61709 | 8.73271 | 753 ft | 9 kts | 122° |
| 2026-04-26 11:58 | 45.61670 | 8.73354 | 756 ft | 10 kts | 124° |
| 2026-04-26 11:58 | 45.61641 | 8.73416 | 753 ft | 0 kts | 124° |
| 2026-04-26 12:00 | 45.61601 | 8.73499 | 753 ft | 14 kts | 124° |
| 2026-04-26 12:00 | 45.61586 | 8.73637 | 755 ft | 16 kts | 86° |
| 2026-04-26 12:00 | 45.61603 | 8.73729 | 749 ft | 4 kts | 49° |
| 2026-04-26 12:00 | 45.61632 | 8.73732 | 749 ft | 9 kts | 0° |
| 2026-04-26 12:01 | 45.61663 | 8.73725 | 746 ft | 0 kts | 349° |
| 2026-04-26 12:02 | 45.61752 | 8.73700 | 747 ft | 42 kts | 349° |
| 2026-04-26 12:02 | 45.62297 | 8.73549 | 752 ft | 115 kts | 349° |
| 2026-04-26 12:02 | 45.63281 | 8.73284 | 797 ft | 170 kts | 350° |
| 2026-04-26 12:02 | 45.64406 | 8.73001 | 1679 ft | 157 kts | 351° |
| 2026-04-26 12:03 | 45.65524 | 8.72809 | 2297 ft | 172 kts | 357° |
| 2026-04-26 12:03 | 45.66738 | 8.73352 | 2497 ft | 201 kts | 38° |
| 2026-04-26 12:03 | 45.67592 | 8.75001 | 3112 ft | 214 kts | 65° |
| 2026-04-26 12:03 | 45.68306 | 8.76994 | 3616 ft | 233 kts | 64° |
| 2026-04-26 12:04 | 45.69124 | 8.78972 | 4578 ft | 226 kts | 60° |
| 2026-04-26 12:04 | 45.69627 | 8.81033 | 5681 ft | 217 kts | 85° |
| 2026-04-26 12:04 | 45.69255 | 8.83093 | 6523 ft | 225 kts | 123° |
| 2026-04-26 12:04 | 45.68000 | 8.84530 | 7045 ft | 244 kts | 150° |
| 2026-04-26 12:05 | 45.66465 | 8.85757 | 7684 ft | 255 kts | 152° |
| 2026-04-26 12:05 | 45.64903 | 8.86859 | 8886 ft | 247 kts | 154° |
| 2026-04-26 12:05 | 45.63345 | 8.87915 | 9816 ft | 252 kts | 154° |
| 2026-04-26 12:05 | 45.61762 | 8.89039 | 10530 ft | 257 kts | 152° |
| 2026-04-26 12:06 | 45.60202 | 8.90232 | 11397 ft | 260 kts | 154° |
| 2026-04-26 12:06 | 45.58455 | 8.90945 | 12220 ft | 266 kts | 172° |
| 2026-04-26 12:06 | 45.56543 | 8.91243 | 12686 ft | 288 kts | 175° |
| 2026-04-26 12:06 | 45.54472 | 8.91515 | 13092 ft | 310 kts | 172° |
| 2026-04-26 12:07 | 45.52340 | 8.92436 | 13492 ft | 332 kts | 153° |
| 2026-04-26 12:07 | 45.50501 | 8.94546 | 13895 ft | 352 kts | 128° |
| 2026-04-26 12:07 | 45.49389 | 8.97718 | 14322 ft | 367 kts | 104° |
| 2026-04-26 12:07 | 45.49255 | 9.01372 | 14930 ft | 376 kts | 81° |
| 2026-04-26 12:08 | 45.49905 | 9.05004 | 15641 ft | 382 kts | 72° |
| 2026-04-26 12:08 | 45.50660 | 9.08666 | 16350 ft | 388 kts | 73° |
| 2026-04-26 12:08 | 45.51340 | 9.12416 | 17101 ft | 392 kts | 76° |
| 2026-04-26 12:08 | 45.51958 | 9.16228 | 17874 ft | 397 kts | 77° |
| 2026-04-26 12:09 | 45.52545 | 9.20103 | 18578 ft | 403 kts | 77° |
| 2026-04-26 12:09 | 45.53117 | 9.24043 | 19231 ft | 407 kts | 78° |
| 2026-04-26 12:09 | 45.53675 | 9.27978 | 19923 ft | 412 kts | 78° |
| 2026-04-26 12:09 | 45.54245 | 9.32059 | 20628 ft | 417 kts | 78° |
| 2026-04-26 12:10 | 45.54803 | 9.36080 | 21330 ft | 421 kts | 78° |
| 2026-04-26 12:10 | 45.55369 | 9.40198 | 22125 ft | 425 kts | 78° |
| 2026-04-26 12:10 | 45.55939 | 9.44357 | 22882 ft | 429 kts | 78° |
| 2026-04-26 12:10 | 45.56511 | 9.48555 | 23565 ft | 433 kts | 78° |
| 2026-04-26 12:11 | 45.57090 | 9.52801 | 24168 ft | 438 kts | 78° |
| 2026-04-26 12:11 | 45.57673 | 9.57099 | 24710 ft | 444 kts | 78° |
| 2026-04-26 12:11 | 45.58261 | 9.61448 | 25270 ft | 448 kts | 78° |
| 2026-04-26 12:11 | 45.58853 | 9.65839 | 25762 ft | 452 kts | 78° |
| 2026-04-26 12:12 | 45.59449 | 9.70276 | 26341 ft | 457 kts | 78° |
| 2026-04-26 12:12 | 45.60048 | 9.74741 | 26905 ft | 461 kts | 78° |
| 2026-04-26 12:12 | 45.60652 | 9.79266 | 27469 ft | 465 kts | 78° |
| 2026-04-26 12:12 | 45.61054 | 9.82286 | 27854 ft | 467 kts | 78° |
| 2026-04-26 12:13 | 45.61870 | 9.88411 | 28617 ft | 472 kts | 78° |
| 2026-04-26 12:13 | 45.62485 | 9.93051 | 29130 ft | 476 kts | 78° |
| 2026-04-26 12:13 | 45.63099 | 9.97720 | 29624 ft | 480 kts | 78° |
| 2026-04-26 12:13 | 45.63718 | 10.02434 | 30149 ft | 484 kts | 78° |
| 2026-04-26 12:14 | 45.64407 | 10.07165 | 30563 ft | 488 kts | 74° |
| 2026-04-26 12:14 | 45.65503 | 10.11759 | 30969 ft | 489 kts | 64° |
| 2026-04-26 12:14 | 45.67060 | 10.16003 | 31389 ft | 490 kts | 57° |
| 2026-04-26 12:14 | 45.68904 | 10.20106 | 31777 ft | 492 kts | 54° |
| 2026-04-26 12:15 | 45.70888 | 10.24104 | 32184 ft | 494 kts | 52° |
| 2026-04-26 12:15 | 45.72934 | 10.28067 | 32609 ft | 496 kts | 51° |
| 2026-04-26 12:15 | 45.74996 | 10.32047 | 32951 ft | 499 kts | 52° |
| 2026-04-26 12:15 | 45.77058 | 10.36062 | 33298 ft | 501 kts | 52° |
| 2026-04-26 12:16 | 45.79106 | 10.40113 | 33824 ft | 500 kts | 52° |
| 2026-04-26 12:16 | 45.81129 | 10.44163 | 34321 ft | 499 kts | 53° |
| 2026-04-26 12:16 | 45.83048 | 10.48306 | 34723 ft | 499 kts | 56° |
| 2026-04-26 12:16 | 45.84866 | 10.52545 | 35107 ft | 499 kts | 57° |
| 2026-04-26 12:17 | 45.86646 | 10.56825 | 35494 ft | 500 kts | 58° |
| 2026-04-26 12:17 | 45.88422 | 10.61110 | 35885 ft | 499 kts | 58° |
| 2026-04-26 12:17 | 45.90206 | 10.65383 | 36248 ft | 499 kts | 57° |
| 2026-04-26 12:17 | 45.92005 | 10.69647 | 36606 ft | 499 kts | 57° |
| 2026-04-26 12:18 | 45.93812 | 10.73904 | 36906 ft | 499 kts | 57° |
| 2026-04-26 12:18 | 45.95599 | 10.78112 | 37265 ft | 498 kts | 57° |
| 2026-04-26 12:18 | 45.97409 | 10.82361 | 37568 ft | 498 kts | 57° |
| 2026-04-26 12:18 | 45.99212 | 10.86610 | 37885 ft | 498 kts | 57° |
| 2026-04-26 12:19 | 46.01022 | 10.90865 | 38236 ft | 498 kts | 57° |
| 2026-04-26 12:19 | 46.02829 | 10.95113 | 38556 ft | 497 kts | 57° |
| 2026-04-26 12:19 | 46.04636 | 10.99370 | 38853 ft | 498 kts | 57° |
| 2026-04-26 12:19 | 46.06441 | 11.03629 | 39095 ft | 497 kts | 57° |
| 2026-04-26 12:20 | 46.08240 | 11.07876 | 39328 ft | 497 kts | 57° |
| 2026-04-26 12:20 | 46.10040 | 11.12139 | 39535 ft | 497 kts | 57° |
| 2026-04-26 12:20 | 46.11838 | 11.16407 | 39774 ft | 497 kts | 57° |
| 2026-04-26 12:20 | 46.13631 | 11.20670 | 40000 ft | 497 kts | 57° |
| 2026-04-26 12:21 | 46.15422 | 11.24935 | 40144 ft | 498 kts | 57° |
| 2026-04-26 12:21 | 46.19020 | 11.33522 | 40145 ft | 499 kts | 57° |
| 2026-04-26 12:22 | 46.22603 | 11.42104 | 40136 ft | 499 kts | 57° |
| 2026-04-26 12:22 | 46.26182 | 11.50699 | 40132 ft | 499 kts | 57° |
| 2026-04-26 12:23 | 46.29731 | 11.59250 | 40130 ft | 499 kts | 57° |
| 2026-04-26 12:23 | 46.33293 | 11.67859 | 40119 ft | 499 kts | 58° |
| 2026-04-26 12:24 | 46.36850 | 11.76487 | 40130 ft | 499 kts | 57° |
| 2026-04-26 12:24 | 46.40401 | 11.85134 | 40119 ft | 499 kts | 58° |
| 2026-04-26 12:25 | 46.45714 | 11.98106 | 40120 ft | 499 kts | 58° |
| 2026-04-26 12:25 | 46.49255 | 12.06783 | 40115 ft | 499 kts | 58° |
| 2026-04-26 12:26 | 46.52792 | 12.15474 | 40118 ft | 500 kts | 58° |
| 2026-04-26 12:26 | 46.56295 | 12.24114 | 40162 ft | 499 kts | 57° |
| 2026-04-26 12:27 | 46.59816 | 12.32823 | 40172 ft | 500 kts | 58° |
| 2026-04-26 12:27 | 46.63332 | 12.41531 | 40165 ft | 499 kts | 57° |
| 2026-04-26 12:28 | 46.66841 | 12.50253 | 40160 ft | 499 kts | 58° |
| 2026-04-26 12:28 | 46.71074 | 12.58183 | 40255 ft | 495 kts | 40° |
| 2026-04-26 12:29 | 46.73743 | 12.61319 | 40468 ft | 491 kts | 31° |
| 2026-04-26 12:29 | 46.76689 | 12.63789 | 40692 ft | 487 kts | 24° |
| 2026-04-26 12:29 | 46.82792 | 12.68064 | 41094 ft | 486 kts | 22° |
| 2026-04-26 12:30 | 46.85875 | 12.70111 | 41140 ft | 487 kts | 21° |
| 2026-04-26 12:30 | 46.92041 | 12.74190 | 41139 ft | 486 kts | 21° |
| 2026-04-26 12:31 | 47.01258 | 12.80388 | 41159 ft | 486 kts | 22° |
| 2026-04-26 12:31 | 47.07391 | 12.84557 | 41155 ft | 486 kts | 22° |
| 2026-04-26 12:32 | 47.13517 | 12.88732 | 41162 ft | 485 kts | 22° |
| 2026-04-26 12:33 | 47.22709 | 12.95010 | 41164 ft | 485 kts | 22° |
| 2026-04-26 12:33 | 47.28783 | 12.99181 | 41186 ft | 485 kts | 22° |
| 2026-04-26 12:34 | 47.34894 | 13.03368 | 41178 ft | 484 kts | 22° |
| 2026-04-26 12:34 | 47.41006 | 13.07577 | 41182 ft | 484 kts | 22° |
| 2026-04-26 12:35 | 47.47117 | 13.11804 | 41196 ft | 485 kts | 22° |
| 2026-04-26 12:35 | 47.53224 | 13.16037 | 41191 ft | 485 kts | 22° |
| 2026-04-26 12:36 | 47.59334 | 13.20275 | 41193 ft | 485 kts | 22° |
| 2026-04-26 12:36 | 47.65437 | 13.24517 | 41199 ft | 485 kts | 22° |
| 2026-04-26 12:37 | 47.71510 | 13.28754 | 41198 ft | 485 kts | 22° |
| 2026-04-26 12:37 | 47.77624 | 13.33032 | 41195 ft | 485 kts | 22° |
| 2026-04-26 12:38 | 47.82708 | 13.36599 | 41201 ft | 485 kts | 22° |
| 2026-04-26 12:38 | 47.88810 | 13.40890 | 41212 ft | 485 kts | 22° |
| 2026-04-26 12:39 | 47.94919 | 13.45195 | 41212 ft | 485 kts | 22° |
| 2026-04-26 12:39 | 48.01023 | 13.49508 | 41211 ft | 485 kts | 22° |
| 2026-04-26 12:40 | 48.07130 | 13.53834 | 41213 ft | 485 kts | 22° |
| 2026-04-26 12:40 | 48.13196 | 13.58143 | 41212 ft | 485 kts | 22° |
| 2026-04-26 12:41 | 48.19332 | 13.62514 | 41208 ft | 485 kts | 22° |
| 2026-04-26 12:41 | 48.25390 | 13.66840 | 41204 ft | 485 kts | 22° |
| 2026-04-26 12:42 | 48.31482 | 13.71203 | 41209 ft | 485 kts | 22° |
| 2026-04-26 12:42 | 48.37573 | 13.75576 | 41207 ft | 485 kts | 22° |
| 2026-04-26 12:43 | 48.43667 | 13.79962 | 41206 ft | 485 kts | 22° |
| 2026-04-26 12:43 | 48.49752 | 13.84354 | 41208 ft | 485 kts | 22° |
| 2026-04-26 12:44 | 48.55844 | 13.88764 | 41205 ft | 485 kts | 22° |
| 2026-04-26 12:44 | 48.61919 | 13.93171 | 41207 ft | 485 kts | 22° |
| 2026-04-26 12:45 | 48.68014 | 13.97533 | 41220 ft | 483 kts | 19° |
| 2026-04-26 12:45 | 48.74340 | 14.00852 | 41209 ft | 481 kts | 14° |
| 2026-04-26 12:46 | 48.80712 | 14.03908 | 41223 ft | 480 kts | 14° |
| 2026-04-26 12:46 | 48.87094 | 14.06923 | 41225 ft | 480 kts | 14° |
| 2026-04-26 12:47 | 48.93428 | 14.09933 | 41239 ft | 480 kts | 14° |
| 2026-04-26 12:47 | 48.99810 | 14.12986 | 41238 ft | 480 kts | 14° |
| 2026-04-26 12:48 | 49.06173 | 14.16041 | 41240 ft | 480 kts | 14° |
| 2026-04-26 12:48 | 49.12538 | 14.19107 | 41253 ft | 479 kts | 14° |
| 2026-04-26 12:49 | 49.18896 | 14.22177 | 41244 ft | 479 kts | 14° |
| 2026-04-26 12:49 | 49.25261 | 14.25258 | 41256 ft | 479 kts | 14° |
| 2026-04-26 12:50 | 49.31618 | 14.28344 | 41266 ft | 479 kts | 14° |
| 2026-04-26 12:50 | 49.37971 | 14.31436 | 41260 ft | 479 kts | 14° |
| 2026-04-26 12:51 | 49.44316 | 14.34534 | 41258 ft | 479 kts | 14° |
| 2026-04-26 12:51 | 49.50634 | 14.37625 | 41261 ft | 478 kts | 14° |
| 2026-04-26 12:52 | 49.56977 | 14.40737 | 41264 ft | 478 kts | 14° |
| 2026-04-26 12:52 | 49.63316 | 14.43856 | 41269 ft | 478 kts | 14° |
| 2026-04-26 12:53 | 49.69637 | 14.46974 | 41272 ft | 478 kts | 14° |
| 2026-04-26 12:53 | 49.75980 | 14.50112 | 41279 ft | 478 kts | 14° |
| 2026-04-26 12:54 | 49.82324 | 14.53260 | 41274 ft | 478 kts | 14° |
| 2026-04-26 12:54 | 49.88661 | 14.56412 | 41277 ft | 478 kts | 14° |
| 2026-04-26 12:55 | 49.95000 | 14.59575 | 41289 ft | 478 kts | 14° |
| 2026-04-26 12:55 | 50.01326 | 14.62739 | 41291 ft | 478 kts | 14° |
| 2026-04-26 12:56 | 50.07659 | 14.65916 | 41293 ft | 478 kts | 14° |
| 2026-04-26 12:56 | 50.13988 | 14.69099 | 41293 ft | 478 kts | 14° |
| 2026-04-26 12:57 | 50.20275 | 14.72270 | 41286 ft | 478 kts | 14° |
| 2026-04-26 12:57 | 50.26604 | 14.75471 | 41289 ft | 478 kts | 14° |
| 2026-04-26 12:58 | 50.36097 | 14.80290 | 41283 ft | 478 kts | 14° |
| 2026-04-26 12:58 | 50.42423 | 14.83513 | 41275 ft | 477 kts | 14° |
| 2026-04-26 12:59 | 50.48742 | 14.86741 | 41273 ft | 477 kts | 14° |
| 2026-04-26 12:59 | 50.55080 | 14.89641 | 41274 ft | 475 kts | 11° |
| 2026-04-26 13:00 | 50.61480 | 14.92268 | 41297 ft | 475 kts | 11° |
| 2026-04-26 13:00 | 50.67872 | 14.94934 | 41278 ft | 474 kts | 11° |
| 2026-04-26 13:01 | 50.74240 | 14.97657 | 41279 ft | 474 kts | 11° |
| 2026-04-26 13:01 | 50.80605 | 15.00413 | 41277 ft | 474 kts | 11° |
| 2026-04-26 13:02 | 50.86973 | 15.03180 | 41279 ft | 474 kts | 11° |
| 2026-04-26 13:02 | 50.93321 | 15.05944 | 41279 ft | 473 kts | 11° |
| 2026-04-26 13:03 | 50.99665 | 15.08712 | 41279 ft | 473 kts | 11° |
| 2026-04-26 13:03 | 51.06021 | 15.11412 | 41278 ft | 472 kts | 10° |
| 2026-04-26 13:04 | 51.12376 | 15.13929 | 41287 ft | 470 kts | 9° |
| 2026-04-26 13:04 | 51.18686 | 15.16423 | 41284 ft | 469 kts | 10° |
| 2026-04-26 13:05 | 51.25022 | 15.18962 | 41282 ft | 469 kts | 10° |
| 2026-04-26 13:05 | 51.31352 | 15.21522 | 41290 ft | 469 kts | 10° |
| 2026-04-26 13:06 | 51.37675 | 15.24092 | 41283 ft | 468 kts | 10° |
| 2026-04-26 13:06 | 51.43997 | 15.26666 | 41281 ft | 468 kts | 10° |
| 2026-04-26 13:07 | 51.50312 | 15.29242 | 41280 ft | 468 kts | 10° |
| 2026-04-26 13:07 | 51.56618 | 15.31823 | 41276 ft | 467 kts | 10° |
| 2026-04-26 13:08 | 51.62875 | 15.34392 | 41274 ft | 466 kts | 10° |
| 2026-04-26 13:08 | 51.69168 | 15.36982 | 41279 ft | 466 kts | 10° |
| 2026-04-26 13:09 | 51.75462 | 15.39580 | 41300 ft | 466 kts | 10° |
| 2026-04-26 13:09 | 51.81743 | 15.42181 | 41284 ft | 465 kts | 9° |
| 2026-04-26 13:10 | 51.88012 | 15.44784 | 41284 ft | 465 kts | 9° |
| 2026-04-26 13:10 | 51.94280 | 15.47394 | 41279 ft | 465 kts | 10° |
| 2026-04-26 13:11 | 52.00546 | 15.50011 | 41293 ft | 465 kts | 9° |
| 2026-04-26 13:11 | 52.06766 | 15.52616 | 41268 ft | 464 kts | 9° |
| 2026-04-26 13:12 | 52.13016 | 15.55241 | 41268 ft | 463 kts | 9° |
| 2026-04-26 13:12 | 52.19262 | 15.57872 | 41269 ft | 463 kts | 9° |
| 2026-04-26 13:13 | 52.25507 | 15.60511 | 41276 ft | 463 kts | 9° |
| 2026-04-26 13:13 | 52.31745 | 15.63155 | 41273 ft | 462 kts | 9° |
| 2026-04-26 13:14 | 52.37974 | 15.65801 | 41270 ft | 462 kts | 9° |
| 2026-04-26 13:14 | 52.44163 | 15.68438 | 41285 ft | 462 kts | 9° |
| 2026-04-26 13:15 | 52.50392 | 15.71099 | 41286 ft | 462 kts | 9° |
| 2026-04-26 13:15 | 52.55566 | 15.73317 | 41289 ft | 462 kts | 9° |
| 2026-04-26 13:16 | 52.62842 | 15.76444 | 41285 ft | 462 kts | 9° |
| 2026-04-26 13:16 | 52.69066 | 15.79128 | 41309 ft | 462 kts | 9° |
| 2026-04-26 13:17 | 52.78393 | 15.83166 | 41284 ft | 461 kts | 9° |
| 2026-04-26 13:18 | 52.87666 | 15.87196 | 41281 ft | 461 kts | 9° |
| 2026-04-26 13:19 | 52.96972 | 15.91261 | 41291 ft | 460 kts | 9° |
| 2026-04-26 13:19 | 53.03171 | 15.93978 | 41281 ft | 460 kts | 9° |
| 2026-04-26 13:20 | 53.09366 | 15.96700 | 41275 ft | 461 kts | 9° |
| 2026-04-26 13:20 | 53.15582 | 15.99438 | 41279 ft | 462 kts | 9° |
| 2026-04-26 13:21 | 53.21803 | 16.02190 | 41285 ft | 462 kts | 9° |
| 2026-04-26 13:21 | 53.28005 | 16.04942 | 41284 ft | 461 kts | 9° |
| 2026-04-26 13:22 | 53.34217 | 16.07706 | 41279 ft | 461 kts | 9° |
| 2026-04-26 13:22 | 53.40425 | 16.10475 | 41282 ft | 462 kts | 9° |
| 2026-04-26 13:23 | 53.46579 | 16.13230 | 41281 ft | 460 kts | 9° |
| 2026-04-26 13:23 | 53.52767 | 16.16008 | 41282 ft | 460 kts | 9° |
| 2026-04-26 13:24 | 53.58954 | 16.18793 | 41284 ft | 460 kts | 9° |
| 2026-04-26 13:24 | 53.65143 | 16.21588 | 41312 ft | 460 kts | 9° |
| 2026-04-26 13:25 | 53.70274 | 16.23913 | 41288 ft | 459 kts | 9° |
| 2026-04-26 13:25 | 53.76440 | 16.26714 | 41292 ft | 459 kts | 9° |
| 2026-04-26 13:26 | 53.82610 | 16.29524 | 41289 ft | 459 kts | 9° |
| 2026-04-26 13:26 | 53.88778 | 16.32342 | 41296 ft | 459 kts | 10° |
| 2026-04-26 13:27 | 53.94935 | 16.35165 | 41291 ft | 458 kts | 9° |
| 2026-04-26 13:27 | 54.01078 | 16.37989 | 41293 ft | 457 kts | 10° |
| 2026-04-26 13:28 | 54.07221 | 16.40820 | 41295 ft | 457 kts | 10° |
| 2026-04-26 13:28 | 54.13367 | 16.43662 | 41296 ft | 457 kts | 10° |
| 2026-04-26 13:29 | 54.19499 | 16.46508 | 41295 ft | 457 kts | 10° |
| 2026-04-26 13:29 | 54.25633 | 16.49365 | 41290 ft | 456 kts | 10° |
| 2026-04-26 13:30 | 54.31767 | 16.52228 | 41290 ft | 456 kts | 10° |
| 2026-04-26 13:30 | 54.37890 | 16.55094 | 41291 ft | 456 kts | 10° |
| 2026-04-26 13:31 | 54.44010 | 16.57969 | 41291 ft | 456 kts | 10° |
| 2026-04-26 13:31 | 54.50098 | 16.60839 | 41292 ft | 455 kts | 10° |
| 2026-04-26 13:32 | 54.56212 | 16.63728 | 41280 ft | 455 kts | 10° |
| 2026-04-26 13:32 | 54.62329 | 16.66628 | 41284 ft | 455 kts | 10° |
| 2026-04-26 13:33 | 54.68435 | 16.69533 | 41277 ft | 454 kts | 10° |
| 2026-04-26 13:33 | 54.74498 | 16.72426 | 41273 ft | 454 kts | 10° |
| 2026-04-26 13:34 | 54.80594 | 16.75343 | 41275 ft | 454 kts | 10° |
| 2026-04-26 13:34 | 54.86685 | 16.78266 | 41268 ft | 454 kts | 10° |
| 2026-04-26 13:35 | 54.92774 | 16.81199 | 41265 ft | 454 kts | 10° |
| 2026-04-26 13:35 | 54.98871 | 16.84144 | 41260 ft | 454 kts | 10° |
| 2026-04-26 13:36 | 55.04963 | 16.87097 | 41260 ft | 454 kts | 10° |
| 2026-04-26 13:36 | 55.11057 | 16.90060 | 41260 ft | 454 kts | 10° |
| 2026-04-26 13:37 | 55.17148 | 16.93030 | 41256 ft | 454 kts | 10° |
| 2026-04-26 13:37 | 55.23229 | 16.96006 | 41249 ft | 454 kts | 10° |
| 2026-04-26 13:38 | 55.29314 | 16.98992 | 41250 ft | 454 kts | 10° |
| 2026-04-26 13:38 | 55.35359 | 17.01969 | 41240 ft | 454 kts | 10° |
| 2026-04-26 13:39 | 55.41442 | 17.04972 | 41244 ft | 454 kts | 10° |
| 2026-04-26 13:39 | 55.47530 | 17.07989 | 41233 ft | 454 kts | 10° |
| 2026-04-26 13:40 | 55.53611 | 17.11013 | 41227 ft | 454 kts | 10° |
| 2026-04-26 13:40 | 55.59699 | 17.14049 | 41227 ft | 454 kts | 10° |
| 2026-04-26 13:41 | 55.65636 | 17.18045 | 41238 ft | 462 kts | 21° |
| 2026-04-26 13:41 | 55.71278 | 17.23380 | 41216 ft | 463 kts | 23° |
| 2026-04-26 13:42 | 55.76906 | 17.28995 | 41211 ft | 464 kts | 23° |
| 2026-04-26 13:42 | 55.82529 | 17.34654 | 41213 ft | 464 kts | 23° |
| 2026-04-26 13:43 | 55.88143 | 17.40294 | 41230 ft | 464 kts | 23° |
| 2026-04-26 13:43 | 55.93772 | 17.45948 | 41203 ft | 464 kts | 23° |
| 2026-04-26 13:44 | 55.99360 | 17.51577 | 41203 ft | 464 kts | 23° |
| 2026-04-26 13:44 | 56.04985 | 17.57263 | 41200 ft | 464 kts | 24° |
| 2026-04-26 13:45 | 56.10611 | 17.62970 | 41200 ft | 464 kts | 24° |
| 2026-04-26 13:45 | 56.16233 | 17.68692 | 41202 ft | 465 kts | 24° |
| 2026-04-26 13:46 | 56.21866 | 17.74446 | 41186 ft | 465 kts | 24° |
| 2026-04-26 13:46 | 56.27482 | 17.80202 | 41190 ft | 465 kts | 24° |
| 2026-04-26 13:47 | 56.33111 | 17.85991 | 41183 ft | 465 kts | 24° |
| 2026-04-26 13:47 | 56.38735 | 17.91794 | 41188 ft | 465 kts | 24° |
| 2026-04-26 13:48 | 56.44326 | 17.97584 | 41186 ft | 466 kts | 24° |
| 2026-04-26 13:48 | 56.49955 | 18.03433 | 41174 ft | 466 kts | 24° |
| 2026-04-26 13:49 | 56.55577 | 18.09295 | 41181 ft | 466 kts | 24° |
| 2026-04-26 13:49 | 56.61196 | 18.15174 | 41183 ft | 466 kts | 24° |
| 2026-04-26 13:50 | 56.66810 | 18.21069 | 41168 ft | 466 kts | 24° |
| 2026-04-26 13:50 | 56.72423 | 18.26982 | 41165 ft | 466 kts | 24° |
| 2026-04-26 13:51 | 56.78026 | 18.32905 | 41166 ft | 466 kts | 25° |
| 2026-04-26 13:51 | 56.83638 | 18.38859 | 41157 ft | 466 kts | 25° |
| 2026-04-26 13:52 | 56.89238 | 18.44822 | 41154 ft | 466 kts | 25° |
| 2026-04-26 13:52 | 56.94841 | 18.50807 | 41154 ft | 466 kts | 25° |
| 2026-04-26 13:53 | 57.00395 | 18.56760 | 41151 ft | 465 kts | 25° |
| 2026-04-26 13:53 | 57.05983 | 18.62749 | 41146 ft | 465 kts | 25° |
| 2026-04-26 13:54 | 57.11555 | 18.68779 | 41139 ft | 464 kts | 25° |
| 2026-04-26 13:54 | 57.17119 | 18.74818 | 41142 ft | 464 kts | 25° |
| 2026-04-26 13:55 | 57.24519 | 18.82871 | 41136 ft | 464 kts | 26° |
| 2026-04-26 13:56 | 57.33790 | 18.93010 | 41129 ft | 464 kts | 26° |
| 2026-04-26 13:56 | 57.39341 | 18.99111 | 41117 ft | 464 kts | 26° |
| 2026-04-26 13:57 | 57.44889 | 19.05229 | 41116 ft | 464 kts | 26° |
| 2026-04-26 13:57 | 57.50396 | 19.11324 | 41117 ft | 464 kts | 26° |
| 2026-04-26 13:58 | 57.55939 | 19.17482 | 41116 ft | 464 kts | 26° |
| 2026-04-26 13:58 | 57.61480 | 19.23660 | 41115 ft | 463 kts | 26° |
| 2026-04-26 13:59 | 57.67013 | 19.29851 | 41112 ft | 463 kts | 26° |
| 2026-04-26 13:59 | 57.72544 | 19.36060 | 41108 ft | 463 kts | 26° |
| 2026-04-26 14:00 | 57.83594 | 19.48533 | 41117 ft | 464 kts | 26° |
| 2026-04-26 14:01 | 57.89119 | 19.54804 | 41101 ft | 464 kts | 26° |
| 2026-04-26 14:01 | 57.94648 | 19.61103 | 41099 ft | 464 kts | 26° |
| 2026-04-26 14:02 | 58.00177 | 19.67425 | 41099 ft | 464 kts | 26° |
| 2026-04-26 14:02 | 58.05700 | 19.73763 | 41099 ft | 464 kts | 26° |
| 2026-04-26 14:03 | 58.11185 | 19.80079 | 41088 ft | 465 kts | 26° |
| 2026-04-26 14:03 | 58.16717 | 19.86473 | 41083 ft | 466 kts | 26° |
| 2026-04-26 14:04 | 58.22248 | 19.92890 | 41087 ft | 466 kts | 26° |
| 2026-04-26 14:04 | 58.27777 | 19.99330 | 41078 ft | 466 kts | 26° |
| 2026-04-26 14:05 | 58.33301 | 20.05786 | 41082 ft | 466 kts | 27° |
| 2026-04-26 14:05 | 58.38814 | 20.12252 | 41072 ft | 468 kts | 27° |
| 2026-04-26 14:06 | 58.44351 | 20.18773 | 41072 ft | 468 kts | 27° |
| 2026-04-26 14:06 | 58.49896 | 20.25328 | 41062 ft | 468 kts | 27° |
| 2026-04-26 14:07 | 58.55427 | 20.31891 | 41062 ft | 468 kts | 27° |
| 2026-04-26 14:07 | 58.60963 | 20.38483 | 41059 ft | 469 kts | 27° |
| 2026-04-26 14:08 | 58.66510 | 20.45114 | 41049 ft | 469 kts | 27° |
| 2026-04-26 14:08 | 58.72056 | 20.51769 | 41046 ft | 469 kts | 27° |
| 2026-04-26 14:09 | 58.77599 | 20.58447 | 41038 ft | 469 kts | 27° |
| 2026-04-26 14:09 | 58.83102 | 20.65101 | 41034 ft | 470 kts | 27° |
| 2026-04-26 14:10 | 58.88649 | 20.71831 | 41020 ft | 472 kts | 28° |
| 2026-04-26 14:10 | 58.94212 | 20.78610 | 41020 ft | 472 kts | 28° |
| 2026-04-26 14:11 | 59.02469 | 20.89133 | 41014 ft | 477 kts | 35° |
| 2026-04-26 14:11 | 59.06977 | 20.98727 | 41024 ft | 487 kts | 51° |
| 2026-04-26 14:12 | 59.10048 | 21.07955 | 41009 ft | 491 kts | 53° |
| 2026-04-26 14:12 | 59.14169 | 21.21208 | 40990 ft | 492 kts | 54° |
| 2026-04-26 14:13 | 59.18879 | 21.36497 | 40992 ft | 492 kts | 54° |
| 2026-04-26 14:14 | 59.22416 | 21.47942 | 40988 ft | 492 kts | 54° |
| 2026-04-26 14:14 | 59.25928 | 21.59317 | 40990 ft | 492 kts | 54° |
| 2026-04-26 14:15 | 59.29442 | 21.70805 | 40969 ft | 493 kts | 55° |
| 2026-04-26 14:15 | 59.31081 | 21.76696 | 40773 ft | 494 kts | 58° |
| 2026-04-26 14:15 | 59.32663 | 21.82661 | 40531 ft | 494 kts | 58° |
| 2026-04-26 14:15 | 59.34253 | 21.88645 | 40311 ft | 494 kts | 58° |
| 2026-04-26 14:16 | 59.35845 | 21.94612 | 40080 ft | 494 kts | 58° |
| 2026-04-26 14:16 | 59.37440 | 22.00578 | 39839 ft | 494 kts | 57° |
| 2026-04-26 14:16 | 59.39038 | 22.06559 | 39615 ft | 494 kts | 57° |
| 2026-04-26 14:16 | 59.40632 | 22.12528 | 39375 ft | 493 kts | 57° |
| 2026-04-26 14:17 | 59.42216 | 22.18478 | 38790 ft | 492 kts | 57° |
| 2026-04-26 14:17 | 59.43801 | 22.24440 | 37975 ft | 493 kts | 57° |
| 2026-04-26 14:17 | 59.45388 | 22.30422 | 37162 ft | 493 kts | 57° |
| 2026-04-26 14:17 | 59.46967 | 22.36397 | 36367 ft | 493 kts | 56° |
| 2026-04-26 14:18 | 59.48547 | 22.42385 | 35570 ft | 493 kts | 56° |
| 2026-04-26 14:18 | 59.50124 | 22.48377 | 34754 ft | 493 kts | 56° |
| 2026-04-26 14:18 | 59.51699 | 22.54381 | 33924 ft | 493 kts | 55° |
| 2026-04-26 14:18 | 59.53272 | 22.60404 | 32945 ft | 493 kts | 54° |
| 2026-04-26 14:19 | 59.54825 | 22.66404 | 32015 ft | 490 kts | 54° |
| 2026-04-26 14:19 | 59.56371 | 22.72376 | 31135 ft | 488 kts | 54° |
| 2026-04-26 14:19 | 59.57925 | 22.78332 | 30185 ft | 487 kts | 54° |
| 2026-04-26 14:19 | 59.59471 | 22.84276 | 29109 ft | 485 kts | 54° |
| 2026-04-26 14:20 | 59.61001 | 22.90182 | 28137 ft | 482 kts | 54° |
| 2026-04-26 14:20 | 59.62494 | 22.95971 | 27297 ft | 477 kts | 54° |
| 2026-04-26 14:20 | 59.63985 | 23.01780 | 26559 ft | 470 kts | 54° |
| 2026-04-26 14:20 | 59.65453 | 23.07507 | 25749 ft | 465 kts | 54° |
| 2026-04-26 14:21 | 59.66881 | 23.13115 | 24851 ft | 447 kts | 55° |
| 2026-04-26 14:21 | 59.68243 | 23.18488 | 24036 ft | 427 kts | 55° |
| 2026-04-26 14:21 | 59.69554 | 23.23657 | 23317 ft | 417 kts | 54° |
| 2026-04-26 14:21 | 59.70860 | 23.28770 | 22534 ft | 414 kts | 55° |
| 2026-04-26 14:22 | 59.72150 | 23.33845 | 21863 ft | 409 kts | 55° |
| 2026-04-26 14:22 | 59.73419 | 23.38860 | 21179 ft | 404 kts | 56° |
| 2026-04-26 14:22 | 59.74672 | 23.43824 | 20502 ft | 400 kts | 56° |
| 2026-04-26 14:22 | 59.75907 | 23.48731 | 19806 ft | 396 kts | 56° |
| 2026-04-26 14:23 | 59.77131 | 23.53601 | 19115 ft | 393 kts | 57° |
| 2026-04-26 14:23 | 59.78341 | 23.58432 | 18425 ft | 390 kts | 57° |
| 2026-04-26 14:23 | 59.79544 | 23.63242 | 17718 ft | 387 kts | 58° |
| 2026-04-26 14:23 | 59.80736 | 23.68019 | 16938 ft | 384 kts | 59° |
| 2026-04-26 14:24 | 59.81910 | 23.72757 | 16234 ft | 380 kts | 59° |
| 2026-04-26 14:24 | 59.83075 | 23.77455 | 15536 ft | 376 kts | 59° |
| 2026-04-26 14:24 | 59.84228 | 23.82109 | 14827 ft | 373 kts | 59° |
| 2026-04-26 14:24 | 59.85367 | 23.86714 | 14123 ft | 369 kts | 59° |
| 2026-04-26 14:25 | 59.86495 | 23.91285 | 13383 ft | 366 kts | 59° |
| 2026-04-26 14:25 | 59.87318 | 23.94630 | 12816 ft | 363 kts | 59° |
| 2026-04-26 14:25 | 59.88433 | 23.99168 | 12105 ft | 358 kts | 58° |
| 2026-04-26 14:25 | 59.89520 | 24.03602 | 11410 ft | 353 kts | 58° |
| 2026-04-26 14:26 | 59.90591 | 24.07977 | 10758 ft | 349 kts | 58° |
| 2026-04-26 14:26 | 59.91624 | 24.12223 | 10578 ft | 329 kts | 58° |
| 2026-04-26 14:26 | 59.92567 | 24.16137 | 10426 ft | 297 kts | 58° |
| 2026-04-26 14:26 | 59.93430 | 24.19713 | 10141 ft | 279 kts | 57° |
| 2026-04-26 14:27 | 59.94274 | 24.23166 | 9608 ft | 276 kts | 56° |
| 2026-04-26 14:27 | 59.95114 | 24.26596 | 8772 ft | 274 kts | 57° |
| 2026-04-26 14:27 | 59.95939 | 24.29982 | 7960 ft | 271 kts | 56° |
| 2026-04-26 14:27 | 59.96757 | 24.33355 | 7173 ft | 267 kts | 56° |
| 2026-04-26 14:28 | 59.97551 | 24.36645 | 6702 ft | 260 kts | 56° |
| 2026-04-26 14:28 | 59.98332 | 24.39873 | 6435 ft | 263 kts | 56° |
| 2026-04-26 14:28 | 59.99120 | 24.43140 | 6183 ft | 259 kts | 56° |
| 2026-04-26 14:28 | 59.99897 | 24.46370 | 5900 ft | 257 kts | 56° |
| 2026-04-26 14:29 | 60.00669 | 24.49584 | 5636 ft | 256 kts | 56° |
| 2026-04-26 14:29 | 60.01439 | 24.52789 | 5363 ft | 255 kts | 56° |
| 2026-04-26 14:29 | 60.02204 | 24.55984 | 5199 ft | 255 kts | 56° |
| 2026-04-26 14:29 | 60.02970 | 24.59186 | 5060 ft | 255 kts | 56° |
| 2026-04-26 14:30 | 60.03733 | 24.62380 | 4938 ft | 254 kts | 57° |
| 2026-04-26 14:30 | 60.04493 | 24.65569 | 4820 ft | 254 kts | 57° |
| 2026-04-26 14:30 | 60.05250 | 24.68751 | 4678 ft | 253 kts | 57° |
| 2026-04-26 14:30 | 60.06007 | 24.71934 | 4551 ft | 253 kts | 57° |
| 2026-04-26 14:31 | 60.06759 | 24.75105 | 4408 ft | 252 kts | 57° |
| 2026-04-26 14:31 | 60.07514 | 24.78292 | 4266 ft | 252 kts | 57° |
| 2026-04-26 14:31 | 60.08265 | 24.81464 | 4130 ft | 251 kts | 57° |
| 2026-04-26 14:31 | 60.09012 | 24.84629 | 4001 ft | 251 kts | 57° |
| 2026-04-26 14:32 | 60.09759 | 24.87792 | 3864 ft | 251 kts | 57° |
| 2026-04-26 14:32 | 60.10502 | 24.90948 | 3734 ft | 251 kts | 57° |
| 2026-04-26 14:32 | 60.11244 | 24.94102 | 3585 ft | 251 kts | 57° |
| 2026-04-26 14:32 | 60.11987 | 24.97265 | 3359 ft | 250 kts | 57° |
| 2026-04-26 14:33 | 60.12726 | 25.00416 | 3069 ft | 249 kts | 58° |
| 2026-04-26 14:33 | 60.13459 | 25.03552 | 2988 ft | 245 kts | 57° |
| 2026-04-26 14:33 | 60.14151 | 25.06544 | 2992 ft | 228 kts | 57° |
| 2026-04-26 14:33 | 60.14809 | 25.09307 | 2959 ft | 209 kts | 53° |
| 2026-04-26 14:34 | 60.15703 | 25.11345 | 2959 ft | 189 kts | 24° |
| 2026-04-26 14:34 | 60.16856 | 25.11795 | 2989 ft | 158 kts | 355° |
| 2026-04-26 14:34 | 60.17918 | 25.11504 | 2995 ft | 152 kts | 349° |
| 2026-04-26 14:34 | 60.18914 | 25.10847 | 2772 ft | 151 kts | 336° |
| 2026-04-26 14:35 | 60.19847 | 25.09899 | 2534 ft | 150 kts | 335° |
| 2026-04-26 14:35 | 60.20802 | 25.09011 | 2331 ft | 152 kts | 336° |
| 2026-04-26 14:35 | 60.21709 | 25.08061 | 2112 ft | 140 kts | 334° |
| 2026-04-26 14:35 | 60.22541 | 25.07202 | 1950 ft | 132 kts | 335° |
| 2026-04-26 14:36 | 60.23364 | 25.06366 | 1784 ft | 133 kts | 335° |
| 2026-04-26 14:36 | 60.24186 | 25.05523 | 1592 ft | 133 kts | 335° |
| 2026-04-26 14:36 | 60.25009 | 25.04677 | 1441 ft | 133 kts | 335° |
| 2026-04-26 14:36 | 60.25831 | 25.03811 | 1233 ft | 133 kts | 335° |
| 2026-04-26 14:37 | 60.26632 | 25.02939 | 962 ft | 126 kts | 333° |
| 2026-04-26 14:37 | 60.27368 | 25.02253 | 910 ft | 109 kts | 336° |
| 2026-04-26 14:37 | 60.28034 | 25.01586 | 814 ft | 105 kts | 334° |
| 2026-04-26 14:37 | 60.28672 | 25.00923 | 760 ft | 113 kts | 334° |
| 2026-04-26 14:38 | 60.29381 | 25.00204 | 587 ft | 113 kts | 334° |
| 2026-04-26 14:38 | 60.30060 | 24.99503 | 371 ft | 105 kts | 331° |
| 2026-04-26 14:38 | 60.30690 | 24.98841 | 216 ft | 100 kts | 332° |
| 2026-04-26 14:38 | 60.31088 | 24.98425 | 176 ft | 92 kts | 334° |
| 2026-04-26 14:39 | 60.31729 | 24.97787 | 159 ft | 60 kts | 332° |
| 2026-04-26 14:39 | 60.32031 | 24.97473 | 161 ft | 39 kts | 333° |
| 2026-04-26 14:39 | 60.32213 | 24.97287 | 163 ft | 20 kts | 333° |
| 2026-04-26 14:39 | 60.32325 | 24.97172 | 166 ft | 16 kts | 333° |
| 2026-04-26 14:40 | 60.32390 | 24.97068 | 168 ft | 9 kts | 296° |
| 2026-04-26 14:40 | 60.32381 | 24.96956 | 170 ft | 8 kts | 233° |
| 2026-04-26 14:40 | 60.32339 | 24.96861 | 171 ft | 10 kts | 228° |
| 2026-04-26 14:40 | 60.32285 | 24.96739 | 172 ft | 13 kts | 228° |
| 2026-04-26 14:41 | 60.32217 | 24.96589 | 174 ft | 16 kts | 227° |
| 2026-04-26 14:41 | 60.32134 | 24.96408 | 174 ft | 20 kts | 227° |
| 2026-04-26 14:41 | 60.32034 | 24.96190 | 174 ft | 17 kts | 227° |
| 2026-04-26 14:41 | 60.32003 | 24.96123 | 176 ft | 0 kts | 227° |
| 2026-04-26 14:42 | 60.31991 | 24.96096 | 176 ft | 6 kts | 227° |
| 2026-04-26 14:42 | 60.31979 | 24.96070 | 176 ft | 1 kts | 227° |
| 2026-04-26 14:42 | 60.31918 | 24.95935 | 174 ft | 22 kts | 228° |
| 2026-04-26 14:43 | 60.31810 | 24.95695 | 175 ft | 21 kts | 227° |
| 2026-04-26 14:43 | 60.31732 | 24.95540 | 176 ft | 13 kts | 202° |
| 2026-04-26 14:43 | 60.31652 | 24.95638 | 170 ft | 12 kts | 133° |
| 2026-04-26 14:43 | 60.31672 | 24.95780 | 169 ft | 13 kts | 47° |
| 2026-04-26 14:44 | 60.31739 | 24.95927 | 169 ft | 13 kts | 47° |
| 2026-04-26 14:44 | 60.31765 | 24.95983 | 170 ft | 0 kts | 47° |
| 2026-04-26 14:45 | 60.31765 | 24.95988 | 170 ft | 1 kts | 62° |
| 2026-04-26 14:45 | 60.31762 | 24.95997 | 170 ft | 1 kts | 102° |
| 2026-04-26 14:45 | 60.31737 | 24.96042 | 169 ft | 4 kts | 136° |
| 2026-04-26 14:45 | 60.31721 | 24.96077 | 169 ft | 2 kts | 131° |
| 2026-04-26 14:46 | 60.31713 | 24.96096 | 169 ft | 1 kts | 131° |
| 2026-04-26 14:46 | 60.31712 | 24.96098 | 169 ft | 0 kts | 131° |